Time;durP1;ratioP1;P1;durP2;ratioP2;P2;SDS_P1;SDS_P2;PMS_P1;PMS_P2;Temp;Humidity;BMP_temperature;BMP_pressure;BME280_temperature;BME280_humidity;BME280_pressure;Samples;Min_cycle;Max_cycle;Signal;HPM_P1;HPM_P2
2020/12/25 00:01:27;;;;;;;1.67;1.25;;;;;;;9.84;67.46;99195.09;4344491;32;33315;-93
2020/12/25 00:03:59;;;;;;;1.05;0.98;;;;;;;9.96;67.05;99187.72;4329947;32;34219;-91
2020/12/25 00:06:41;;;;;;;1.50;1.40;;;;;;;9.93;67.08;99196.81;4377418;32;33814;-93
2020/12/25 00:09:24;;;;;;;4.65;2.70;;;;;;;9.81;67.30;99191.94;4341920;33;33921;-90
2020/12/25 00:11:51;;;;;;;4.55;4.10;;;;;;;9.34;69.15;99183.38;4341794;33;33470;-94
2020/12/25 00:14:21;;;;;;;13.60;8.45;;;;;;;9.80;67.59;99175.16;4341290;33;34898;-93
2020/12/25 00:16:53;;;;;;;11.55;6.93;;;;;;;9.65;67.84;99171.38;4317100;33;34736;-93
2020/12/25 00:19:35;;;;;;;11.38;6.90;;;;;;;9.49;68.50;99165.94;4363694;32;34731;-93
2020/12/25 00:22:03;;;;;;;;;;;;;;;9.46;68.58;99170.72;4359380;32;33298;-91
2020/12/25 00:24:47;;;;;;;10.18;4.22;;;;;;;9.54;68.15;99186.72;4386667;32;34866;-93
2020/12/25 00:27:15;;;;;;;4.05;2.03;;;;;;;9.46;68.15;99179.50;4375445;32;34549;-93
2020/12/25 00:29:58;;;;;;;3.50;2.60;;;;;;;9.53;67.91;99171.78;4377965;32;35437;-90
2020/12/25 00:32:25;;;;;;;5.70;1.90;;;;;;;9.60;67.59;99160.38;4384993;32;33705;-91
2020/12/25 00:35:11;;;;;;;3.25;2.65;;;;;;;9.54;67.74;99176.09;4399316;32;34813;-92
2020/12/25 00:37:41;;;;;;;2.08;1.87;;;;;;;9.60;67.37;99172.81;4374671;32;34004;-92
2020/12/25 00:40:10;;;;;;;3.12;2.47;;;;;;;9.56;67.27;99177.59;4374577;32;33798;-91
2020/12/25 00:42:39;;;;;;;3.35;1.75;;;;;;;9.45;67.59;99172.53;4401777;32;33183;-95
2020/12/25 00:45:21;;;;;;;3.08;2.20;;;;;;;9.49;67.49;99173.91;4384488;32;34347;-93
2020/12/25 00:47:53;;;;;;;3.85;1.65;;;;;;;9.60;67.11;99173.66;4361896;32;33565;-93
2020/12/25 00:50:37;;;;;;;1.62;1.30;;;;;;;9.41;67.70;99173.81;4341447;32;34118;-93
2020/12/25 00:53:19;;;;;;;3.42;2.30;;;;;;;9.74;66.54;99167.78;4384210;32;33201;-88
2020/12/25 00:56:02;;;;;;;1.23;0.95;;;;;;;9.53;67.17;99177.91;4370453;32;35173;-91
2020/12/25 00:58:32;;;;;;;2.53;1.62;;;;;;;8.95;69.36;99175.81;4359267;32;34571;-94
2020/12/25 01:01:06;;;;;;;1.35;0.88;;;;;;;9.03;68.98;99186.53;4357935;32;33943;-93
2020/12/25 01:03:38;;;;;;;1.20;1.10;;;;;;;9.14;68.59;99200.41;4359522;32;33599;-93
2020/12/25 01:06:20;;;;;;;1.20;0.93;;;;;;;9.05;68.73;99206.63;4359054;32;34612;-91
2020/12/25 01:09:03;;;;;;;1.92;1.40;;;;;;;8.98;69.00;99208.19;4343591;32;33494;-93
2020/12/25 01:11:45;;;;;;;1.52;1.42;;;;;;;8.98;68.97;99200.22;4347940;32;34809;-94
2020/12/25 01:14:13;;;;;;;;;;;;;;;8.94;69.29;99209.47;4359022;32;33095;-91
2020/12/25 01:16:57;;;;;;;3.05;1.27;;;;;;;8.76;70.29;99213.91;4395726;32;36160;-93
2020/12/25 01:19:43;;;;;;;1.15;0.70;;;;;;;9.08;69.11;99211.62;4341629;32;34957;-88
2020/12/25 01:22:11;;;;;;;1.92;1.77;;;;;;;9.19;68.79;99218.56;4355731;32;32223;-92
2020/12/25 01:24:53;;;;;;;2.35;2.00;;;;;;;9.22;68.41;99226.19;4357598;32;32890;-91
2020/12/25 01:27:35;;;;;;;3.75;1.75;;;;;;;9.24;68.39;99225.06;4369588;32;34934;-92
2020/12/25 01:30:17;;;;;;;3.10;2.25;;;;;;;9.15;68.87;99219.81;4383455;32;34596;-94
2020/12/25 01:33:03;;;;;;;1.67;1.43;;;;;;;9.20;68.80;99218.41;4373698;32;33628;-93
2020/12/25 01:35:46;;;;;;;1.00;1.00;;;;;;;9.24;68.92;99218.91;4365906;32;32946;-92
2020/12/25 01:38:32;;;;;;;1.45;0.90;;;;;;;9.24;68.90;99226.88;4358313;32;35248;-92
2020/12/25 01:41:22;;;;;;;0.60;0.60;;;;;;;9.20;69.00;99220.22;4399018;32;33885;-91
2020/12/25 01:43:50;;;;;;;1.48;1.23;;;;;;;9.54;67.62;99230.03;4389611;32;32663;-91
2020/12/25 01:46:18;;;;;;;0.77;0.62;;;;;;;9.31;68.16;99234.13;4404079;32;33526;-93
2020/12/25 01:49:00;;;;;;;2.20;1.35;;;;;;;9.55;67.57;99239.66;4359980;32;33986;-94
2020/12/25 01:51:29;;;;;;;0.85;0.82;;;;;;;9.39;67.77;99233.34;4372605;32;34696;-91
2020/12/25 01:53:57;;;;;;;3.15;1.35;;;;;;;9.31;68.12;99230.63;4359537;32;33237;-94
2020/12/25 01:56:25;;;;;;;2.60;1.77;;;;;;;9.25;68.42;99229.41;4385333;32;33419;-90
2020/12/25 01:58:54;;;;;;;0.77;0.77;;;;;;;8.99;69.49;99228.44;4372641;32;33682;-93
2020/12/25 02:01:36;;;;;;;1.77;1.30;;;;;;;8.97;69.42;99225.09;4396106;32;33420;-94
2020/12/25 02:04:18;;;;;;;1.65;1.02;;;;;;;9.06;68.96;99234.81;4367360;32;32254;-91
2020/12/25 02:06:48;;;;;;;0.82;0.80;;;;;;;9.13;68.63;99227.09;4357730;32;32843;-92
2020/12/25 02:09:21;;;;;;;2.10;0.85;;;;;;;9.19;68.23;99224.69;4358366;32;34252;-94
2020/12/25 02:12:03;;;;;;;1.40;1.00;;;;;;;9.13;68.03;99232.41;4387957;32;34137;-89
2020/12/25 02:14:33;;;;;;;2.42;1.77;;;;;;;9.15;67.71;99228.63;4387840;32;32027;-91
2020/12/25 02:17:15;;;;;;;1.95;1.65;;;;;;;9.33;66.84;99218.03;4405291;32;36392;-92
2020/12/25 02:19:57;;;;;;;0.82;0.65;;;;;;;9.34;66.38;99217.88;4395715;32;35013;-93
2020/12/25 02:22:26;;;;;;;2.15;1.33;;;;;;;8.81;67.97;99232.84;4399555;32;34033;-93
2020/12/25 02:24:55;;;;;;;3.58;1.37;;;;;;;8.88;67.78;99231.28;4390162;32;32591;-93
2020/12/25 02:27:37;;;;;;;2.10;1.95;;;;;;;8.37;69.49;99230.09;4382223;32;33034;-91
2020/12/25 02:30:20;;;;;;;1.90;1.80;;;;;;;8.67;68.48;99229.84;4383705;32;34392;-91
2020/12/25 02:33:02;;;;;;;2.28;1.70;;;;;;;8.90;67.51;99242.56;4384902;32;33754;-91
2020/12/25 02:35:44;;;;;;;1.33;1.23;;;;;;;8.88;67.34;99241.91;4355979;32;33113;-92
2020/12/25 02:38:20;;;;;;;1.12;1.08;;;;;;;8.84;67.68;99247.63;4345993;32;34046;-94
2020/12/25 02:41:05;;;;;;;1.48;1.37;;;;;;;8.57;68.30;99247.59;4356231;32;35152;-89
2020/12/25 02:43:48;;;;;;;0.88;0.88;;;;;;;8.74;67.75;99244.19;4401653;32;33976;-93
2020/12/25 02:46:27;;;;;;;2.15;1.95;;;;;;;8.64;67.87;99244.25;4402720;32;34131;-89
2020/12/25 02:48:56;;;;;;;1.45;1.35;;;;;;;8.70;67.51;99238.34;4402607;32;34166;-92
2020/12/25 02:51:47;;;;;;;1.45;1.08;;;;;;;8.80;67.17;99240.97;4366786;32;36210;-95
2020/12/25 02:54:15;;;;;;;1.30;1.20;;;;;;;8.83;66.95;99245.97;4360389;32;34123;-93
2020/12/25 02:56:45;;;;;;;2.08;1.60;;;;;;;8.81;67.01;99245.28;4373489;32;34709;-93
2020/12/25 02:59:28;;;;;;;10.93;1.37;;;;;;;8.82;67.01;99245.13;4357641;32;32741;-94
2020/12/25 03:02:18;;;;;;;;;;;;;;;8.82;66.97;99250.44;4365493;32;33978;-94
2020/12/25 03:05:00;;;;;;;2.60;1.67;;;;;;;8.61;67.44;99249.00;4363871;32;33089;-92
2020/12/25 03:07:46;;;;;;;3.40;0.90;;;;;;;8.47;67.84;99253.94;4357184;32;33599;-94
2020/12/25 03:10:29;;;;;;;1.77;1.37;;;;;;;8.34;68.38;99262.19;4385128;32;33994;-95
2020/12/25 03:13:01;;;;;;;1.48;0.47;;;;;;;8.37;68.74;99261.09;4386969;32;34302;-95
2020/12/25 03:15:28;;;;;;;0.32;0.32;;;;;;;8.36;68.97;99260.22;4388340;32;34669;-94
2020/12/25 03:17:56;;;;;;;0.43;0.35;;;;;;;8.29;69.02;99267.06;4386840;32;32730;-91
2020/12/25 03:20:28;;;;;;;0.73;0.68;;;;;;;8.25;69.24;99260.41;4399459;32;33221;-90
2020/12/25 03:22:56;;;;;;;0.85;0.70;;;;;;;8.37;68.82;99251.31;4386906;32;34059;-93
2020/12/25 03:25:38;;;;;;;0.73;0.30;;;;;;;8.26;69.22;99246.19;4345013;32;34353;-96
2020/12/25 03:28:07;;;;;;;0.95;0.95;;;;;;;8.41;68.69;99239.44;4358018;32;34014;-93
2020/12/25 03:30:49;;;;;;;0.90;0.52;;;;;;;8.38;68.95;99247.66;4356607;32;34100;-96
2020/12/25 03:33:17;;;;;;;0.70;0.70;;;;;;;8.34;69.26;99243.66;4366699;32;34745;-93
2020/12/25 03:36:00;;;;;;;0.68;0.68;;;;;;;8.25;69.98;99249.81;4359915;32;33651;-93
2020/12/25 03:38:47;;;;;;;1.30;0.90;;;;;;;8.16;71.15;99239.19;4374140;32;33867;-94
2020/12/25 03:41:29;;;;;;;1.35;1.25;;;;;;;8.05;71.56;99239.34;4364600;32;34796;-95
2020/12/25 03:44:14;;;;;;;0.68;0.40;;;;;;;7.98;71.81;99232.94;4340980;33;35297;-94
2020/12/25 03:46:57;;;;;;;0.88;0.88;;;;;;;7.89;72.46;99234.62;4327210;33;33079;-95
2020/12/25 03:49:27;;;;;;;0.47;0.47;;;;;;;7.89;72.20;99239.94;4347026;32;32803;-93
2020/12/25 03:52:10;;;;;;;1.15;0.40;;;;;;;8.23;71.20;99242.97;4335358;33;34098;-88
2020/12/25 03:54:52;;;;;;;1.35;0.90;;;;;;;8.17;71.49;99244.34;4385538;32;34423;-93
2020/12/25 03:57:39;;;;;;;0.60;0.60;;;;;;;8.39;70.97;99248.53;4344833;32;34981;-94
2020/12/25 04:00:14;;;;;;;0.82;0.82;;;;;;;8.42;71.08;99227.03;4356962;32;32356;-92
2020/12/25 04:03:03;;;;;;;1.87;0.70;;;;;;;8.45;70.81;99219.62;4315795;33;34422;-93
2020/12/25 04:05:48;;;;;;;0.45;0.45;;;;;;;8.57;70.46;99218.44;4355550;32;34709;-93
2020/12/25 04:08:30;;;;;;;0.57;0.55;;;;;;;8.66;70.09;99228.19;4369813;32;34594;-94
2020/12/25 04:11:15;;;;;;;0.57;0.45;;;;;;;8.64;70.05;99220.38;4343896;32;31902;-94
2020/12/25 04:13:58;;;;;;;2.67;1.30;;;;;;;8.53;70.54;99231.16;4364521;32;33302;-94
2020/12/25 04:16:40;;;;;;;0.47;0.47;;;;;;;8.05;72.64;99232.25;4365632;32;35723;-90
2020/12/25 04:19:22;;;;;;;0.82;0.82;;;;;;;7.87;73.60;99233.09;4366615;32;33021;-93
2020/12/25 04:22:04;;;;;;;3.15;1.12;;;;;;;8.00;73.11;99231.00;4395592;32;35158;-92
2020/12/25 04:24:48;;;;;;;1.17;1.00;;;;;;;8.38;71.47;99223.00;4374112;32;34911;-92
2020/12/25 04:27:31;;;;;;;0.57;0.43;;;;;;;8.60;70.44;99237.56;4356748;32;34483;-92
2020/12/25 04:30:14;;;;;;;1.00;0.77;;;;;;;8.70;69.86;99230.41;4397065;32;33199;-92
2020/12/25 04:33:00;;;;;;;1.50;0.62;;;;;;;8.72;69.61;99227.59;4400278;32;20067;-93
2020/12/25 04:35:28;;;;;;;;;;;;;;;8.67;69.97;99232.50;4389587;32;33003;-93
2020/12/25 04:38:13;;;;;;;1.00;0.82;;;;;;;8.61;70.17;99227.78;4394718;32;36441;-93
2020/12/25 04:40:44;;;;;;;1.20;0.98;;;;;;;8.78;69.50;99233.16;4386094;32;34276;-89
2020/12/25 04:43:27;;;;;;;0.50;0.50;;;;;;;8.75;69.85;99228.16;4399240;32;32880;-93
2020/12/25 04:46:09;;;;;;;1.15;0.30;;;;;;;8.58;70.30;99233.38;4401173;32;32250;-92
2020/12/25 04:48:52;;;;;;;1.37;0.73;;;;;;;8.81;69.61;99238.16;4379940;32;35629;-91
2020/12/25 04:51:34;;;;;;;0.70;0.70;;;;;;;8.69;69.87;99239.34;4358103;32;33485;-92
2020/12/25 04:54:20;;;;;;;1.53;0.80;;;;;;;8.74;69.81;99236.25;4359821;32;33623;-93
2020/12/25 04:57:02;;;;;;;1.83;0.70;;;;;;;8.76;69.71;99234.28;4387980;32;35050;-91
2020/12/25 04:59:44;;;;;;;0.77;0.70;;;;;;;8.81;69.42;99242.62;4352561;32;35586;-93
2020/12/25 05:02:29;;;;;;;1.50;1.42;;;;;;;8.95;68.91;99235.03;4337836;33;33908;-88
2020/12/25 05:05:15;;;;;;;1.15;0.70;;;;;;;8.82;69.30;99223.91;4347500;32;32503;-95
2020/12/25 05:07:58;;;;;;;0.88;0.88;;;;;;;8.83;69.46;99233.56;4395725;32;35476;-93
2020/12/25 05:10:34;;;;;;;1.02;0.43;;;;;;;8.88;69.52;99246.37;4383759;32;33837;-93
2020/12/25 05:13:02;;;;;;;2.55;1.25;;;;;;;8.86;69.77;99243.88;4411449;32;33923;-95
2020/12/25 05:15:52;;;;;;;1.00;0.98;;;;;;;9.06;69.23;99233.97;4370381;32;33659;-92
2020/12/25 05:18:30;;;;;;;0.65;0.52;;;;;;;8.78;70.26;99243.75;4359827;32;32509;-95
2020/12/25 05:21:28;;;;;;;0.60;0.60;;;;;;;8.85;70.42;99244.84;4352708;32;35672;-93
2020/12/25 05:24:12;;;;;;;1.35;1.25;;;;;;;8.98;69.97;99248.00;4390904;32;33530;-95
2020/12/25 05:27:15;;;;;;;1.05;0.90;;;;;;;8.95;70.16;99237.69;4331203;33;33625;-94
2020/12/25 05:30:00;;;;;;;1.15;1.00;;;;;;;8.99;70.26;99247.00;4344356;32;34577;-94
2020/12/25 05:32:29;;;;;;;2.05;1.48;;;;;;;8.56;71.95;99248.59;4343548;32;34519;-93
2020/12/25 05:35:12;;;;;;;3.08;1.92;;;;;;;8.28;73.14;99246.84;4374720;32;34453;-95
2020/12/25 05:38:08;;;;;;;17.50;9.48;;;;;;;8.71;71.58;99242.66;4366285;32;32236;-94
2020/12/25 05:40:44;;;;;;;5.50;3.90;;;;;;;8.78;71.35;99240.25;4361256;32;32979;-94
2020/12/25 05:43:14;;;;;;;4.32;3.30;;;;;;;8.66;71.79;99229.03;4360338;32;35741;-90
2020/12/25 05:45:59;;;;;;;1.00;1.00;;;;;;;8.65;71.94;99223.84;4400677;32;33648;-94
2020/12/25 05:48:27;;;;;;;2.20;0.82;;;;;;;8.80;71.23;99227.72;4397920;32;31899;-95
2020/12/25 05:50:58;;;;;;;0.95;0.95;;;;;;;8.77;71.31;99222.69;4388486;32;34421;-94
2020/12/25 05:53:27;;;;;;;1.58;1.17;;;;;;;9.01;70.55;99215.87;4385918;32;34869;-96
2020/12/25 05:56:09;;;;;;;0.47;0.47;;;;;;;8.15;73.18;99224.25;4387435;32;33984;-90
2020/12/25 05:58:46;;;;;;;;;;;;;;;8.31;73.10;99221.91;4375917;32;33428;-94
2020/12/25 06:01:23;;;;;;;0.75;0.52;;;;;;;8.36;72.50;99230.22;4375666;32;34470;-93
2020/12/25 06:04:05;;;;;;;1.27;0.80;;;;;;;8.72;71.49;99231.06;4359948;32;34266;-93
2020/12/25 06:06:47;;;;;;;1.58;1.12;;;;;;;8.43;72.34;99231.34;4349674;32;34272;-94
2020/12/25 06:09:32;;;;;;;6.25;4.95;;;;;;;8.66;70.98;99225.53;4356500;32;33984;-91
2020/12/25 06:12:09;;;;;;;1.30;1.20;;;;;;;8.75;70.54;99230.81;4346706;32;33950;-94
2020/12/25 06:14:38;;;;;;;0.93;0.85;;;;;;;8.40;71.79;99243.06;4345611;32;34753;-95
2020/12/25 06:17:13;;;;;;;2.53;1.55;;;;;;;8.56;70.99;99236.19;4345177;32;33956;-92
2020/12/25 06:19:46;;;;;;;1.27;1.20;;;;;;;8.57;71.00;99231.69;4332833;32;33255;-92
2020/12/25 06:22:26;;;;;;;1.40;1.30;;;;;;;8.66;70.84;99234.34;4333398;32;33407;-94
2020/12/25 06:25:14;;;;;;;0.85;0.85;;;;;;;8.55;71.26;99234.53;4360697;32;34797;-90
2020/12/25 06:28:02;;;;;;;1.48;1.37;;;;;;;8.36;71.07;99243.47;4401018;32;35710;-95
2020/12/25 06:30:46;;;;;;;5.80;1.75;;;;;;;8.42;71.29;99240.28;4374876;32;33669;-94
2020/12/25 06:33:13;;;;;;;;;;;;;;;8.29;71.42;99242.41;4381830;32;33267;-93
2020/12/25 06:35:59;;;;;;;1.35;0.80;;;;;;;8.48;70.87;99234.41;4374321;32;36702;-92
2020/12/25 06:38:42;;;;;;;2.20;0.85;;;;;;;8.22;71.08;99236.00;4359353;32;33583;-95
2020/12/25 06:41:27;;;;;;;1.25;1.00;;;;;;;8.27;70.85;99231.94;4371450;32;31696;-90
2020/12/25 06:43:55;;;;;;;1.37;1.27;;;;;;;7.91;71.88;99237.97;4372307;32;33613;-90
2020/12/25 06:46:34;;;;;;;1.73;1.35;;;;;;;8.17;70.60;99230.25;4359031;32;33881;-94
2020/12/25 06:49:08;;;;;;;1.05;0.93;;;;;;;7.98;71.64;99239.09;4361224;32;35308;-92
2020/12/25 06:51:50;;;;;;;1.20;0.90;;;;;;;8.14;70.97;99235.84;4367952;32;32971;-94
2020/12/25 06:54:21;;;;;;;0.85;0.85;;;;;;;7.81;71.59;99239.78;4357897;32;35006;-92
2020/12/25 06:56:52;;;;;;;4.68;2.08;;;;;;;7.75;71.69;99240.34;4357466;32;33983;-94
2020/12/25 06:59:40;;;;;;;1.12;1.00;;;;;;;7.84;71.11;99230.75;4374933;32;33548;-94
2020/12/25 07:02:12;;;;;;;1.83;1.30;;;;;;;8.02;70.29;99237.81;4381977;32;35166;-94
2020/12/25 07:05:00;;;;;;;1.27;0.90;;;;;;;7.96;69.80;99243.69;4385838;32;34475;-91
2020/12/25 07:07:42;;;;;;;0.98;0.95;;;;;;;7.90;69.99;99248.69;4398486;32;35903;-91
2020/12/25 07:10:15;;;;;;;1.52;0.47;;;;;;;7.74;69.99;99253.75;4387347;32;33308;-94
2020/12/25 07:12:44;;;;;;;1.73;1.58;;;;;;;7.88;69.79;99261.25;4396642;32;33044;-92
2020/12/25 07:15:12;;;;;;;1.20;1.20;;;;;;;7.35;70.83;99262.63;4390017;32;33793;-90
2020/12/25 07:17:47;;;;;;;0.98;0.90;;;;;;;7.35;70.65;99263.44;4400801;32;33983;-94
2020/12/25 07:20:33;;;;;;;1.67;1.58;;;;;;;7.54;69.51;99262.66;4389244;32;34157;-94
2020/12/25 07:23:08;;;;;;;4.03;0.85;;;;;;;7.32;69.56;99271.66;4390886;32;33938;-94
2020/12/25 07:25:42;;;;;;;0.82;0.82;;;;;;;7.27;69.12;99268.59;4365017;32;33765;-94
2020/12/25 07:28:28;;;;;;;1.15;1.15;;;;;;;7.14;68.82;99275.94;4345133;32;34635;-94
2020/12/25 07:31:12;;;;;;;1.80;0.73;;;;;;;6.65;70.33;99268.00;4380452;32;33394;-92
2020/12/25 07:33:55;;;;;;;1.17;1.08;;;;;;;6.34;70.79;99282.13;4366217;32;33039;-94
2020/12/25 07:36:40;;;;;;;1.58;1.48;;;;;;;6.97;69.32;99287.16;4349827;32;34418;-93
2020/12/25 07:39:24;;;;;;;1.45;1.35;;;;;;;7.19;68.17;99288.75;4382526;32;35223;-93
2020/12/25 07:42:07;;;;;;;0.43;0.40;;;;;;;7.21;67.52;99286.81;4340893;33;33334;-91
2020/12/25 07:44:50;;;;;;;0.55;0.40;;;;;;;6.72;68.02;99295.53;4364343;32;34454;-93
2020/12/25 07:47:38;;;;;;;1.52;0.80;;;;;;;6.40;68.06;99304.53;4355327;32;33905;-89
2020/12/25 07:50:16;;;;;;;0.88;0.80;;;;;;;6.60;67.79;99312.47;4325718;32;33699;-93
2020/12/25 07:52:48;;;;;;;0.52;0.32;;;;;;;6.10;68.84;99304.50;4358591;32;33994;-93
2020/12/25 07:55:23;;;;;;;0.90;0.47;;;;;;;6.24;68.49;99312.12;4358474;32;33138;-91
2020/12/25 07:57:52;;;;;;;0.77;0.77;;;;;;;6.20;68.06;99313.31;4357883;32;33531;-93
2020/12/25 08:00:40;;;;;;;3.20;1.03;;;;;;;6.36;67.90;99313.72;4398479;32;35695;-93
2020/12/25 08:03:34;;;;;;;0.80;0.80;;;;;;;6.35;67.76;99319.97;4330985;33;35025;-92
2020/12/25 08:06:18;;;;;;;1.30;1.20;;;;;;;6.27;68.25;99323.25;4315022;33;32389;-92
2020/12/25 08:08:57;;;;;;;0.75;0.75;;;;;;;6.26;67.76;99328.66;4327382;33;32979;-94
2020/12/25 08:11:41;;;;;;;0.52;0.52;;;;;;;5.95;69.76;99346.22;4354566;32;34562;-92
2020/12/25 08:14:14;;;;;;;0.37;0.32;;;;;;;6.02;68.94;99351.81;4344865;32;33903;-92
2020/12/25 08:16:43;;;;;;;1.60;1.23;;;;;;;6.04;68.60;99349.88;4318457;33;32726;-90
2020/12/25 08:19:25;;;;;;;0.70;0.70;;;;;;;6.15;68.36;99355.97;4337999;32;33743;-93
2020/12/25 08:22:10;;;;;;;2.55;2.35;;;;;;;5.76;69.78;99361.00;4343172;32;36427;-93
2020/12/25 08:24:54;;;;;;;1.62;1.52;;;;;;;5.55;70.14;99360.09;4328879;32;33753;-92
2020/12/25 08:27:32;;;;;;;0.43;0.43;;;;;;;5.44;70.04;99362.75;4344221;32;31967;-93
2020/12/25 08:30:05;;;;;;;0.57;0.57;;;;;;;5.59;69.93;99364.19;4342835;32;32948;-94
2020/12/25 08:32:35;;;;;;;0.75;0.55;;;;;;;5.51;70.67;99359.50;4352707;32;34650;-90
2020/12/25 08:35:18;;;;;;;0.55;0.55;;;;;;;5.54;69.96;99375.09;4355426;32;34829;-91
2020/12/25 08:38:02;;;;;;;0.52;0.50;;;;;;;5.40;70.39;99366.63;4356679;32;32943;-92
2020/12/25 08:40:37;;;;;;;0.35;0.20;;;;;;;5.47;70.16;99366.97;4357208;32;33559;-94
2020/12/25 08:43:10;;;;;;;2.90;1.00;;;;;;;5.56;70.23;99367.03;4354711;32;33878;-94
2020/12/25 08:45:39;;;;;;;0.85;0.85;;;;;;;5.43;69.97;99376.91;4356523;32;33673;-90
2020/12/25 08:48:21;;;;;;;3.00;1.90;;;;;;;5.58;69.89;99378.34;4336077;33;33176;-95
2020/12/25 08:51:10;;;;;;;0.57;0.57;;;;;;;5.63;69.58;99378.78;4342132;32;33702;-93
2020/12/25 08:53:54;;;;;;;0.40;0.40;;;;;;;5.72;69.69;99381.53;4356352;32;35600;-94
2020/12/25 08:56:36;;;;;;;0.20;0.20;;;;;;;5.90;69.07;99369.53;4345131;32;33865;-93
2020/12/25 08:59:09;;;;;;;1.27;1.12;;;;;;;6.16;68.40;99368.19;4357119;32;33493;-94
2020/12/25 09:01:42;;;;;;;0.40;0.40;;;;;;;5.90;68.34;99371.31;4343120;33;33207;-92
2020/12/25 09:04:28;;;;;;;1.05;0.65;;;;;;;5.59;69.96;99372.09;4370819;32;34024;-94
2020/12/25 09:06:59;;;;;;;0.20;0.20;;;;;;;6.10;68.84;99375.78;4360285;32;32806;-92
2020/12/25 09:09:41;;;;;;;26.60;16.70;;;;;;;6.20;68.22;99376.69;4343143;32;32407;-89
2020/12/25 09:12:11;;;;;;;4.15;3.65;;;;;;;6.45;67.23;99374.53;4357741;32;33742;-89
2020/12/25 09:14:39;;;;;;;;;;;;;;;6.22;68.30;99372.97;4346129;32;35489;-93
2020/12/25 09:17:24;;;;;;;0.88;0.88;;;;;;;6.29;67.62;99389.16;4351731;32;34800;-93
2020/12/25 09:19:52;;;;;;;;;;;;;;;6.49;67.53;99401.53;4343413;33;32703;-93
2020/12/25 09:22:22;;;;;;;0.90;0.85;;;;;;;6.61;67.13;99395.25;4355157;32;33144;-92
2020/12/25 09:24:51;;;;;;;0.77;0.77;;;;;;;6.91;65.87;99388.16;4341355;33;34128;-94
2020/12/25 09:27:33;;;;;;;0.62;0.62;;;;;;;6.45;67.11;99386.91;4360371;32;34855;-94
2020/12/25 09:30:12;;;;;;;1.20;0.85;;;;;;;6.44;66.87;99391.34;4359811;32;33537;-93
2020/12/25 09:32:46;;;;;;;0.47;0.47;;;;;;;6.27;68.08;99393.72;4373379;32;33455;-89
2020/12/25 09:35:29;;;;;;;0.77;0.77;;;;;;;6.52;67.46;99391.53;4367003;32;34045;-93
2020/12/25 09:38:11;;;;;;;1.75;1.45;;;;;;;6.87;66.30;99396.50;4379834;32;35716;-93
2020/12/25 09:40:53;;;;;;;1.95;0.93;;;;;;;6.76;67.12;99388.63;4367049;32;33965;-91
2020/12/25 09:43:22;;;;;;;0.65;0.62;;;;;;;6.51;67.41;99392.50;4372429;32;33171;-90
2020/12/25 09:46:00;;;;;;;;;;;;;;;6.79;67.46;99381.28;4372924;32;35011;-92
2020/12/25 09:48:35;;;;;;;0.62;0.62;;;;;;;6.87;67.32;99384.13;4372411;32;33633;-93
2020/12/25 09:51:25;;;;;;;1.08;1.02;;;;;;;6.91;67.57;99380.22;4372127;32;33270;-92
2020/12/25 09:53:55;;;;;;;1.90;0.98;;;;;;;6.53;68.71;99380.00;4374352;32;33656;-93
2020/12/25 09:56:28;;;;;;;0.35;0.35;;;;;;;6.61;68.14;99374.09;4361152;32;35097;-91
2020/12/25 09:59:10;;;;;;;1.25;0.95;;;;;;;6.53;68.05;99369.44;4361760;32;34637;-93
2020/12/25 10:01:55;;;;;;;0.57;0.57;;;;;;;6.81;67.62;99368.78;4408191;32;34384;-92
2020/12/25 10:04:34;;;;;;;0.85;0.68;;;;;;;6.72;67.42;99368.72;4393596;32;33069;-92
2020/12/25 10:07:19;;;;;;;1.70;1.60;;;;;;;6.92;67.98;99363.38;4396038;32;35205;-89
2020/12/25 10:09:58;;;;;;;1.25;1.15;;;;;;;7.06;68.04;99360.41;4364558;32;34627;-94
2020/12/25 10:12:26;;;;;;;2.10;1.67;;;;;;;6.84;67.86;99360.59;4388046;32;31976;-90
2020/12/25 10:15:11;;;;;;;1.40;1.08;;;;;;;6.89;67.61;99363.66;4416068;32;33370;-93
2020/12/25 10:17:54;;;;;;;1.20;0.73;;;;;;;6.80;69.12;99361.81;4414432;32;35043;-89
2020/12/25 10:20:25;;;;;;;0.95;0.95;;;;;;;6.96;67.46;99359.53;4391585;32;34856;-93
2020/12/25 10:22:57;;;;;;;1.48;0.50;;;;;;;6.66;67.70;99367.44;4404859;32;34104;-93
2020/12/25 10:25:32;;;;;;;0.68;0.68;;;;;;;6.51;68.00;99373.19;4390714;32;32959;-93
2020/12/25 10:28:03;;;;;;;1.23;1.10;;;;;;;7.11;66.59;99389.97;4393811;32;35874;-94
2020/12/25 10:30:33;;;;;;;1.23;0.98;;;;;;;7.08;66.65;99395.50;4405605;32;33905;-94
2020/12/25 10:33:17;;;;;;;0.62;0.52;;;;;;;7.02;67.04;99393.41;4343588;32;33857;-92
2020/12/25 10:36:00;;;;;;;1.20;1.12;;;;;;;6.82;67.90;99375.72;4381702;32;33327;-93
2020/12/25 10:38:29;;;;;;;0.75;0.62;;;;;;;7.03;67.55;99376.56;4373189;32;33600;-92
2020/12/25 10:41:00;;;;;;;1.33;1.23;;;;;;;7.27;66.86;99376.22;4372857;32;34624;-94
2020/12/25 10:43:30;;;;;;;0.57;0.57;;;;;;;7.49;65.66;99378.66;4372795;32;33002;-94
2020/12/25 10:45:58;;;;;;;0.95;0.70;;;;;;;7.45;65.85;99374.63;4372951;32;33201;-94
2020/12/25 10:48:28;;;;;;;0.55;0.55;;;;;;;7.44;66.15;99370.31;4384140;32;33958;-91
2020/12/25 10:51:06;;;;;;;0.73;0.73;;;;;;;7.28;66.50;99375.25;4373247;32;33592;-90
2020/12/25 10:53:55;;;;;;;0.85;0.68;;;;;;;7.61;65.80;99385.50;4397959;32;32939;-94
2020/12/25 10:56:25;;;;;;;2.50;1.20;;;;;;;7.55;66.14;99381.59;4390223;32;32911;-94
2020/12/25 10:58:54;;;;;;;1.33;1.00;;;;;;;7.29;67.10;99383.03;4396611;32;34537;-93
2020/12/25 11:01:29;;;;;;;0.45;0.40;;;;;;;7.20;66.09;99380.38;4403326;32;33763;-93
2020/12/25 11:04:11;;;;;;;1.30;0.90;;;;;;;7.48;66.75;99384.94;4360094;32;32683;-92
2020/12/25 11:06:39;;;;;;;0.88;0.65;;;;;;;7.73;64.51;99381.81;4372287;32;32972;-88
2020/12/25 11:09:08;;;;;;;22.60;10.18;;;;;;;8.01;64.48;99383.66;4351505;32;34032;-90
2020/12/25 11:11:51;;;;;;;1.98;1.87;;;;;;;7.89;63.76;99380.28;4334094;32;34453;-92
2020/12/25 11:14:22;;;;;;;1.02;1.02;;;;;;;7.69;64.64;99383.03;4331722;32;33175;-93
2020/12/25 11:16:50;;;;;;;1.33;0.88;;;;;;;8.22;63.46;99374.59;4356685;32;33980;-91
2020/12/25 11:19:20;;;;;;;1.80;1.70;;;;;;;8.00;62.89;99364.25;4356389;32;35058;-93
2020/12/25 11:21:48;;;;;;;1.10;1.00;;;;;;;7.97;62.24;99363.69;4343960;32;32869;-92
2020/12/25 11:24:30;;;;;;;0.52;0.52;;;;;;;7.71;63.87;99378.44;4354877;32;32932;-92
2020/12/25 11:26:58;;;;;;;3.22;1.27;;;;;;;7.76;64.40;99382.38;4372449;32;33460;-92
2020/12/25 11:29:25;;;;;;;1.15;0.73;;;;;;;7.64;63.93;99387.91;4343689;32;35635;-92
2020/12/25 11:31:52;;;;;;;0.70;0.62;;;;;;;7.62;63.82;99395.12;4371496;32;33674;-92
2020/12/25 11:34:25;;;;;;;1.05;0.80;;;;;;;7.70;64.32;99387.34;4360050;32;33470;-90
2020/12/25 11:36:53;;;;;;;1.15;1.05;;;;;;;7.56;64.04;99375.34;4372779;32;34094;-91
2020/12/25 11:39:20;;;;;;;1.60;0.98;;;;;;;7.01;65.53;99369.72;4344366;32;35403;-92
2020/12/25 11:41:49;;;;;;;0.65;0.57;;;;;;;7.17;64.69;99370.06;4357653;32;33698;-91
2020/12/25 11:44:20;;;;;;;0.60;0.52;;;;;;;6.85;65.31;99377.28;4358961;32;33547;-91
2020/12/25 11:46:59;;;;;;;1.00;0.47;;;;;;;6.79;66.74;99367.25;4354782;32;33513;-92
2020/12/25 11:49:28;;;;;;;0.90;0.40;;;;;;;7.18;64.54;99369.09;4371243;32;35739;-93
2020/12/25 11:52:04;;;;;;;0.57;0.57;;;;;;;7.23;64.97;99364.22;4360085;32;33600;-93
2020/12/25 11:54:31;;;;;;;;;;;;;;;7.12;65.71;99359.03;4372007;32;32978;-92
2020/12/25 11:56:58;;;;;;;2.63;1.60;;;;;;;7.17;65.72;99355.03;4358528;32;32488;-91
2020/12/25 11:59:40;;;;;;;0.62;0.62;;;;;;;7.42;64.84;99359.00;4358561;32;34588;-92
2020/12/25 12:02:08;;;;;;;0.90;0.90;;;;;;;7.29;64.46;99366.34;4334190;32;33973;-89
2020/12/25 12:04:44;;;;;;;1.35;1.25;;;;;;;7.15;65.75;99364.91;4372223;32;32842;-92
2020/12/25 12:07:14;;;;;;;2.58;0.65;;;;;;;7.37;64.49;99361.22;4373222;32;32757;-90
2020/12/25 12:09:42;;;;;;;0.28;0.28;;;;;;;7.50;63.08;99356.53;4358903;32;34962;-90
2020/12/25 12:12:10;;;;;;;1.20;1.20;;;;;;;7.49;63.53;99360.13;4359501;32;34978;-92
2020/12/25 12:14:40;;;;;;;0.68;0.68;;;;;;;7.81;62.69;99376.66;4371812;32;33132;-91
2020/12/25 12:17:09;;;;;;;1.12;0.77;;;;;;;7.51;63.57;99376.72;4366222;32;35527;-91
2020/12/25 12:19:39;;;;;;;2.45;1.52;;;;;;;7.87;62.19;99379.59;4370985;32;35516;-93
2020/12/25 12:22:07;;;;;;;0.95;0.85;;;;;;;7.89;62.42;99385.59;4358925;32;34106;-90
2020/12/25 12:24:39;;;;;;;1.08;1.02;;;;;;;7.63;63.81;99389.72;4356482;32;34229;-90
2020/12/25 12:27:09;;;;;;;0.50;0.50;;;;;;;7.76;63.03;99397.41;4357983;32;34129;-91
2020/12/25 12:29:36;;;;;;;1.37;1.27;;;;;;;7.51;64.55;99390.78;4358786;32;34109;-92
2020/12/25 12:32:06;;;;;;;2.45;1.10;;;;;;;7.26;64.66;99393.09;4357743;32;33359;-93